sensor_id;sensor_type;location;lat;lon;timestamp;pressure;altitude;pressure_sealevel;temperature;humidity
82353;BME280;71954;47.430;18.920;2023-08-20T00:00:19;100197.88;;;21.55;82.06
82353;BME280;71954;47.430;18.920;2023-08-20T00:02:46;100204.13;;;21.55;82.23
82353;BME280;71954;47.430;18.920;2023-08-20T00:05:18;100201.59;;;21.53;81.74
82353;BME280;71954;47.430;18.920;2023-08-20T00:07:44;100198.25;;;21.51;82.04
82353;BME280;71954;47.430;18.920;2023-08-20T00:10:11;100203.66;;;21.51;81.99
82353;BME280;71954;47.430;18.920;2023-08-20T00:12:37;100199.28;;;21.50;81.57
82353;BME280;71954;47.430;18.920;2023-08-20T00:15:04;100200.31;;;21.49;81.83
82353;BME280;71954;47.430;18.920;2023-08-20T00:17:35;100197.78;;;21.48;81.19
82353;BME280;71954;47.430;18.920;2023-08-20T00:20:04;100201.97;;;21.50;81.61
82353;BME280;71954;47.430;18.920;2023-08-20T00:22:40;100193.03;;;21.50;81.10
82353;BME280;71954;47.430;18.920;2023-08-20T00:25:09;100200.31;;;21.49;81.10
82353;BME280;71954;47.430;18.920;2023-08-20T00:27:36;100197.41;;;21.51;81.35
82353;BME280;71954;47.430;18.920;2023-08-20T00:30:03;100200.97;;;21.51;81.28
82353;BME280;71954;47.430;18.920;2023-08-20T00:32:30;100191.19;;;21.50;81.57
82353;BME280;71954;47.430;18.920;2023-08-20T00:34:57;100190.34;;;21.50;81.39
82353;BME280;71954;47.430;18.920;2023-08-20T00:37:23;100189.50;;;21.49;81.13
82353;BME280;71954;47.430;18.920;2023-08-20T00:39:50;100194.06;;;21.49;81.15
82353;BME280;71954;47.430;18.920;2023-08-20T00:42:16;100185.94;;;21.49;81.11
82353;BME280;71954;47.430;18.920;2023-08-20T00:44:43;100189.84;;;21.46;80.92
82353;BME280;71954;47.430;18.920;2023-08-20T00:47:13;100192.56;;;21.46;81.15
82353;BME280;71954;47.430;18.920;2023-08-20T00:49:41;100193.59;;;21.45;81.14
82353;BME280;71954;47.430;18.920;2023-08-20T00:52:08;100187.38;;;21.45;80.82
82353;BME280;71954;47.430;18.920;2023-08-20T00:54:35;100188.22;;;21.45;80.67
82353;BME280;71954;47.430;18.920;2023-08-20T00:57:02;100185.50;;;21.45;81.09
82353;BME280;71954;47.430;18.920;2023-08-20T00:59:30;100189.84;;;21.46;81.78
82353;BME280;71954;47.430;18.920;2023-08-20T01:01:58;100192.78;;;21.45;81.88
82353;BME280;71954;47.430;18.920;2023-08-20T01:04:25;100195.66;;;21.43;81.25
82353;BME280;71954;47.430;18.920;2023-08-20T01:09:43;100196.00;;;21.40;81.21
82353;BME280;71954;47.430;18.920;2023-08-20T01:12:16;100193.13;;;21.42;81.70
82353;BME280;71954;47.430;18.920;2023-08-20T01:14:43;100199.38;;;21.42;81.82
82353;BME280;71954;47.430;18.920;2023-08-20T01:17:10;100190.25;;;21.43;81.75
82353;BME280;71954;47.430;18.920;2023-08-20T01:19:36;100202.91;;;21.43;81.63
82353;BME280;71954;47.430;18.920;2023-08-20T01:25:30;100197.50;;;21.43;81.45
82353;BME280;71954;47.430;18.920;2023-08-20T01:28:19;100208.31;;;21.43;81.71
82353;BME280;71954;47.430;18.920;2023-08-20T01:30:46;100195.84;;;21.42;81.57
82353;BME280;71954;47.430;18.920;2023-08-20T01:33:13;100197.69;;;21.41;81.24
82353;BME280;71954;47.430;18.920;2023-08-20T01:35:41;100211.03;;;21.43;81.40
82353;BME280;71954;47.430;18.920;2023-08-20T01:38:07;100209.50;;;21.40;82.01
82353;BME280;71954;47.430;18.920;2023-08-20T01:40:34;100206.38;;;21.37;82.25
82353;BME280;71954;47.430;18.920;2023-08-20T01:43:01;100203.84;;;21.35;81.81
82353;BME280;71954;47.430;18.920;2023-08-20T01:45:27;100203.22;;;21.33;81.75
82353;BME280;71954;47.430;18.920;2023-08-20T01:47:54;100203.41;;;21.32;81.36
82353;BME280;71954;47.430;18.920;2023-08-20T01:50:20;100206.94;;;21.32;81.28
82353;BME280;71954;47.430;18.920;2023-08-20T01:52:47;100208.13;;;21.30;80.88
82353;BME280;71954;47.430;18.920;2023-08-20T01:55:14;100202.91;;;21.28;81.34
82353;BME280;71954;47.430;18.920;2023-08-20T01:57:40;100210.38;;;21.26;81.62
82353;BME280;71954;47.430;18.920;2023-08-20T02:00:07;100209.91;;;21.23;81.43
82353;BME280;71954;47.430;18.920;2023-08-20T02:02:34;100199.66;;;21.18;81.71
82353;BME280;71954;47.430;18.920;2023-08-20T02:05:01;100199.00;;;21.16;81.05
82353;BME280;71954;47.430;18.920;2023-08-20T02:07:28;100199.84;;;21.17;81.24
82353;BME280;71954;47.430;18.920;2023-08-20T02:09:54;100196.13;;;21.18;80.57
82353;BME280;71954;47.430;18.920;2023-08-20T02:12:21;100199.00;;;21.16;80.78
82353;BME280;71954;47.430;18.920;2023-08-20T02:14:48;100200.69;;;21.17;80.74
82353;BME280;71954;47.430;18.920;2023-08-20T02:17:14;100197.34;;;21.15;80.48
82353;BME280;71954;47.430;18.920;2023-08-20T02:19:41;100195.63;;;21.14;80.61
82353;BME280;71954;47.430;18.920;2023-08-20T02:22:07;100191.25;;;21.13;80.60
82353;BME280;71954;47.430;18.920;2023-08-20T02:24:34;100189.56;;;21.12;80.28
82353;BME280;71954;47.430;18.920;2023-08-20T02:27:00;100191.44;;;21.11;79.81
82353;BME280;71954;47.430;18.920;2023-08-20T02:29:27;100187.25;;;21.09;79.88
82353;BME280;71954;47.430;18.920;2023-08-20T02:31:54;100198.06;;;21.09;79.47
82353;BME280;71954;47.430;18.920;2023-08-20T02:34:20;100193.84;;;21.06;80.04
82353;BME280;71954;47.430;18.920;2023-08-20T02:36:47;100199.44;;;21.05;79.99
82353;BME280;71954;47.430;18.920;2023-08-20T02:39:15;100194.03;;;21.05;80.00
82353;BME280;71954;47.430;18.920;2023-08-20T02:41:43;100188.00;;;21.03;79.89
82353;BME280;71954;47.430;18.920;2023-08-20T02:44:10;100190.88;;;21.01;80.55
82353;BME280;71954;47.430;18.920;2023-08-20T02:46:36;100187.69;;;20.98;80.36
82353;BME280;71954;47.430;18.920;2023-08-20T02:49:04;100186.22;;;20.95;80.33
82353;BME280;71954;47.430;18.920;2023-08-20T02:51:31;100188.09;;;20.95;80.04
82353;BME280;71954;47.430;18.920;2023-08-20T02:53:57;100182.88;;;20.93;79.84
82353;BME280;71954;47.430;18.920;2023-08-20T02:56:24;100191.81;;;20.94;79.99
82353;BME280;71954;47.430;18.920;2023-08-20T02:58:50;100186.97;;;20.89;80.56
82353;BME280;71954;47.430;18.920;2023-08-20T03:01:20;100193.56;;;20.87;80.23
82353;BME280;71954;47.430;18.920;2023-08-20T03:03:47;100190.22;;;20.85;80.07
82353;BME280;71954;47.430;18.920;2023-08-20T03:06:14;100189.75;;;20.81;80.10
82353;BME280;71954;47.430;18.920;2023-08-20T03:08:40;100188.91;;;20.81;80.23
82353;BME280;71954;47.430;18.920;2023-08-20T03:11:07;100190.97;;;20.79;80.56
82353;BME280;71954;47.430;18.920;2023-08-20T03:13:33;100196.34;;;20.79;80.43
82353;BME280;71954;47.430;18.920;2023-08-20T03:16:00;100186.59;;;20.78;80.58
82353;BME280;71954;47.430;18.920;2023-08-20T03:18:27;100193.00;;;20.77;80.52
82353;BME280;71954;47.430;18.920;2023-08-20T03:20:55;100200.06;;;20.78;80.34
82353;BME280;71954;47.430;18.920;2023-08-20T03:23:23;100193.00;;;20.77;80.06
82353;BME280;71954;47.430;18.920;2023-08-20T03:25:50;100202.78;;;20.78;80.16
82353;BME280;71954;47.430;18.920;2023-08-20T03:28:20;100201.09;;;20.77;80.29
82353;BME280;71954;47.430;18.920;2023-08-20T03:30:47;100198.78;;;20.74;80.54
82353;BME280;71954;47.430;18.920;2023-08-20T03:33:14;100204.16;;;20.74;80.26
82353;BME280;71954;47.430;18.920;2023-08-20T03:35:41;100205.81;;;20.75;79.88
82353;BME280;71954;47.430;18.920;2023-08-20T03:38:07;100211.22;;;20.75;80.01
82353;BME280;71954;47.430;18.920;2023-08-20T03:40:34;100207.03;;;20.72;80.38
82353;BME280;71954;47.430;18.920;2023-08-20T03:43:00;100209.56;;;20.74;80.82
82353;BME280;71954;47.430;18.920;2023-08-20T03:45:28;100209.91;;;20.70;80.68
82353;BME280;71954;47.430;18.920;2023-08-20T03:47:56;100213.28;;;20.73;80.58
82353;BME280;71954;47.430;18.920;2023-08-20T03:50:22;100212.63;;;20.70;80.81
82353;BME280;71954;47.430;18.920;2023-08-20T03:52:49;100217.16;;;20.70;81.02
82353;BME280;71954;47.430;18.920;2023-08-20T03:55:16;100215.31;;;20.70;80.95
82353;BME280;71954;47.430;18.920;2023-08-20T03:57:42;100222.38;;;20.71;80.77
82353;BME280;71954;47.430;18.920;2023-08-20T04:00:09;100224.06;;;20.73;80.94
82353;BME280;71954;47.430;18.920;2023-08-20T04:02:36;100218.69;;;20.73;81.08
82353;BME280;71954;47.430;18.920;2023-08-20T04:05:03;100223.22;;;20.72;81.04
82353;BME280;71954;47.430;18.920;2023-08-20T04:07:30;100230.19;;;20.66;81.26
82353;BME280;71954;47.430;18.920;2023-08-20T04:09:57;100232.69;;;20.68;81.58
82353;BME280;71954;47.430;18.920;2023-08-20T04:12:23;100231.03;;;20.67;81.41
82353;BME280;71954;47.430;18.920;2023-08-20T04:14:50;100230.19;;;20.66;81.58
82353;BME280;71954;47.430;18.920;2023-08-20T04:17:17;100236.22;;;20.68;81.58
82353;BME280;71954;47.430;18.920;2023-08-20T04:19:43;100233.34;;;20.70;81.73
82353;BME280;71954;47.430;18.920;2023-08-20T04:22:10;100236.53;;;20.74;82.84
82353;BME280;71954;47.430;18.920;2023-08-20T04:24:37;100221.38;;;20.73;82.65
82353;BME280;71954;47.430;18.920;2023-08-20T04:27:03;100232.44;;;20.78;83.17
82353;BME280;71954;47.430;18.920;2023-08-20T04:29:30;100235.78;;;20.80;83.54
82353;BME280;71954;47.430;18.920;2023-08-20T04:31:56;100238.13;;;20.83;83.27
82353;BME280;71954;47.430;18.920;2023-08-20T04:34:23;100242.13;;;20.87;83.05
82353;BME280;71954;47.430;18.920;2023-08-20T04:36:49;100242.41;;;20.92;82.70
82353;BME280;71954;47.430;18.920;2023-08-20T04:39:18;100247.91;;;20.98;82.67
82353;BME280;71954;47.430;18.920;2023-08-20T04:41:45;100251.75;;;21.04;82.44
82353;BME280;71954;47.430;18.920;2023-08-20T04:44:11;100242.91;;;21.10;82.29
82353;BME280;71954;47.430;18.920;2023-08-20T04:46:38;100241.53;;;21.14;82.19
82353;BME280;71954;47.430;18.920;2023-08-20T04:49:04;100246.41;;;21.19;82.27
82353;BME280;71954;47.430;18.920;2023-08-20T04:51:32;100244.16;;;21.22;81.92
82353;BME280;71954;47.430;18.920;2023-08-20T04:53:58;100243.81;;;21.25;81.84
82353;BME280;71954;47.430;18.920;2023-08-20T04:56:25;100244.91;;;21.31;81.84
82353;BME280;71954;47.430;18.920;2023-08-20T04:58:51;100248.72;;;21.36;81.97
82353;BME280;71954;47.430;18.920;2023-08-20T05:01:18;100248.38;;;21.39;81.64
82353;BME280;71954;47.430;18.920;2023-08-20T05:03:44;100250.50;;;21.44;81.72
82353;BME280;71954;47.430;18.920;2023-08-20T05:06:11;100253.66;;;21.47;82.06
82353;BME280;71954;47.430;18.920;2023-08-20T05:08:38;100258.88;;;21.49;81.63
82353;BME280;71954;47.430;18.920;2023-08-20T05:11:04;100257.31;;;21.55;81.66
82353;BME280;71954;47.430;18.920;2023-08-20T05:13:31;100254.38;;;21.71;81.31
82353;BME280;71954;47.430;18.920;2023-08-20T05:15:57;100257.09;;;22.00;80.50
82353;BME280;71954;47.430;18.920;2023-08-20T05:18:24;100255.16;;;22.37;80.37
82353;BME280;71954;47.430;18.920;2023-08-20T05:20:50;100252.22;;;22.74;78.29
82353;BME280;71954;47.430;18.920;2023-08-20T05:23:17;100249.34;;;23.03;76.92
82353;BME280;71954;47.430;18.920;2023-08-20T05:25:43;100235.84;;;23.38;75.82
82353;BME280;71954;47.430;18.920;2023-08-20T05:28:10;100251.06;;;23.73;74.37
82353;BME280;71954;47.430;18.920;2023-08-20T05:30:37;100244.53;;;24.15;74.30
82353;BME280;71954;47.430;18.920;2023-08-20T05:33:03;100248.38;;;24.54;72.37
82353;BME280;71954;47.430;18.920;2023-08-20T05:35:30;100251.53;;;24.97;71.69
82353;BME280;71954;47.430;18.920;2023-08-20T05:37:57;100249.63;;;25.30;70.64
82353;BME280;71954;47.430;18.920;2023-08-20T05:40:23;100248.97;;;25.61;67.58
82353;BME280;71954;47.430;18.920;2023-08-20T05:42:50;100250.72;;;25.87;68.03
82353;BME280;71954;47.430;18.920;2023-08-20T05:45:17;100255.81;;;26.21;67.98
82353;BME280;71954;47.430;18.920;2023-08-20T05:47:44;100248.31;;;26.48;66.05
82353;BME280;71954;47.430;18.920;2023-08-20T05:50:11;100253.84;;;26.66;65.59
82353;BME280;71954;47.430;18.920;2023-08-20T05:52:37;100247.09;;;27.00;65.79
82353;BME280;71954;47.430;18.920;2023-08-20T05:55:04;100255.50;;;27.42;65.27
82353;BME280;71954;47.430;18.920;2023-08-20T05:57:31;100255.44;;;27.85;61.33
82353;BME280;71954;47.430;18.920;2023-08-20T05:59:57;100263.06;;;28.13;62.26
82353;BME280;71954;47.430;18.920;2023-08-20T06:02:24;100250.56;;;28.35;60.10
82353;BME280;71954;47.430;18.920;2023-08-20T06:04:51;100255.53;;;28.56;59.93
82353;BME280;71954;47.430;18.920;2023-08-20T06:07:17;100259.53;;;29.07;58.73
82353;BME280;71954;47.430;18.920;2023-08-20T06:09:44;100265.38;;;29.57;56.03
82353;BME280;71954;47.430;18.920;2023-08-20T06:12:10;100264.94;;;30.00;55.55
82353;BME280;71954;47.430;18.920;2023-08-20T06:14:37;100269.66;;;30.33;53.52
82353;BME280;71954;47.430;18.920;2023-08-20T06:17:04;100265.59;;;30.64;54.34
82353;BME280;71954;47.430;18.920;2023-08-20T06:19:31;100264.47;;;30.77;52.46
82353;BME280;71954;47.430;18.920;2023-08-20T06:21:58;100264.13;;;30.90;52.43
82353;BME280;71954;47.430;18.920;2023-08-20T06:24:25;100265.81;;;30.91;51.95
82353;BME280;71954;47.430;18.920;2023-08-20T06:26:52;100257.28;;;31.04;52.17
82353;BME280;71954;47.430;18.920;2023-08-20T06:29:18;100265.41;;;31.16;52.09
82353;BME280;71954;47.430;18.920;2023-08-20T06:31:45;100261.94;;;31.42;52.28
82353;BME280;71954;47.430;18.920;2023-08-20T06:34:12;100262.25;;;31.62;51.31
82353;BME280;71954;47.430;18.920;2023-08-20T06:36:38;100253.13;;;31.78;51.78
82353;BME280;71954;47.430;18.920;2023-08-20T06:39:05;100254.16;;;31.94;50.72
82353;BME280;71954;47.430;18.920;2023-08-20T06:41:32;100261.47;;;32.10;50.48
82353;BME280;71954;47.430;18.920;2023-08-20T06:43:58;100252.88;;;32.23;50.39
82353;BME280;71954;47.430;18.920;2023-08-20T06:46:25;100255.38;;;32.25;50.84
82353;BME280;71954;47.430;18.920;2023-08-20T06:48:52;100251.00;;;32.29;50.94
82353;BME280;71954;47.430;18.920;2023-08-20T06:51:21;100255.22;;;32.15;50.17
82353;BME280;71954;47.430;18.920;2023-08-20T06:53:49;100248.97;;;31.98;50.55
82353;BME280;71954;47.430;18.920;2023-08-20T06:56:15;100255.94;;;31.83;51.91
82353;BME280;71954;47.430;18.920;2023-08-20T06:58:42;100251.84;;;31.86;51.91
82353;BME280;71954;47.430;18.920;2023-08-20T07:01:09;100253.50;;;31.65;52.11
82353;BME280;71954;47.430;18.920;2023-08-20T07:03:38;100259.25;;;31.47;52.39
82353;BME280;71954;47.430;18.920;2023-08-20T07:06:05;100258.00;;;31.16;53.55
82353;BME280;71954;47.430;18.920;2023-08-20T07:08:32;100248.44;;;30.85;54.28
82353;BME280;71954;47.430;18.920;2023-08-20T07:10:59;100258.63;;;30.56;55.19
82353;BME280;71954;47.430;18.920;2023-08-20T07:13:25;100261.03;;;30.24;56.43
82353;BME280;71954;47.430;18.920;2023-08-20T07:15:52;100265.91;;;29.94;57.30
82353;BME280;71954;47.430;18.920;2023-08-20T07:18:19;100257.97;;;29.69;58.76
82353;BME280;71954;47.430;18.920;2023-08-20T07:20:46;100259.69;;;29.47;58.91
82353;BME280;71954;47.430;18.920;2023-08-20T07:23:13;100268.00;;;29.29;59.71
82353;BME280;71954;47.430;18.920;2023-08-20T07:25:40;100264.41;;;29.17;59.68
82353;BME280;71954;47.430;18.920;2023-08-20T07:28:08;100264.88;;;29.13;60.74
82353;BME280;71954;47.430;18.920;2023-08-20T07:30:35;100263.31;;;29.06;61.27
82353;BME280;71954;47.430;18.920;2023-08-20T07:33:02;100265.09;;;29.00;60.99
82353;BME280;71954;47.430;18.920;2023-08-20T07:35:31;100266.66;;;29.08;61.38
82353;BME280;71954;47.430;18.920;2023-08-20T07:37:58;100269.28;;;29.03;61.54
82353;BME280;71954;47.430;18.920;2023-08-20T07:40:25;100270.56;;;29.00;62.38
82353;BME280;71954;47.430;18.920;2023-08-20T07:42:51;100274.84;;;28.96;62.11
82353;BME280;71954;47.430;18.920;2023-08-20T07:45:18;100272.97;;;28.97;63.03
82353;BME280;71954;47.430;18.920;2023-08-20T07:47:44;100273.56;;;28.99;61.95
82353;BME280;71954;47.430;18.920;2023-08-20T07:50:11;100264.88;;;29.02;63.15
82353;BME280;71954;47.430;18.920;2023-08-20T07:52:38;100263.31;;;29.06;62.10
82353;BME280;71954;47.430;18.920;2023-08-20T07:55:04;100268.69;;;29.12;64.28
82353;BME280;71954;47.430;18.920;2023-08-20T07:57:31;100275.81;;;29.02;59.67
82353;BME280;71954;47.430;18.920;2023-08-20T07:59:58;100270.94;;;29.04;58.67
82353;BME280;71954;47.430;18.920;2023-08-20T08:02:25;100267.84;;;29.12;62.87
82353;BME280;71954;47.430;18.920;2023-08-20T08:04:52;100270.00;;;29.10;59.14
82353;BME280;71954;47.430;18.920;2023-08-20T08:07:18;100276.66;;;29.14;61.49
82353;BME280;71954;47.430;18.920;2023-08-20T08:09:45;100269.06;;;29.16;58.37
82353;BME280;71954;47.430;18.920;2023-08-20T08:12:11;100277.38;;;29.21;58.73
82353;BME280;71954;47.430;18.920;2023-08-20T08:14:38;100274.88;;;29.20;59.63
82353;BME280;71954;47.430;18.920;2023-08-20T08:17:05;100277.38;;;29.21;61.13
82353;BME280;71954;47.430;18.920;2023-08-20T08:19:32;100275.34;;;29.28;60.79
82353;BME280;71954;47.430;18.920;2023-08-20T08:21:58;100268.09;;;29.22;57.27
82353;BME280;71954;47.430;18.920;2023-08-20T08:24:25;100278.56;;;29.25;60.07
82353;BME280;71954;47.430;18.920;2023-08-20T08:26:51;100276.75;;;29.31;57.72
82353;BME280;71954;47.430;18.920;2023-08-20T08:29:18;100271.56;;;29.29;59.13
82353;BME280;71954;47.430;18.920;2023-08-20T08:31:45;100280.34;;;29.31;56.19
82353;BME280;71954;47.430;18.920;2023-08-20T08:34:11;100282.00;;;29.32;62.07
82353;BME280;71954;47.430;18.920;2023-08-20T08:36:38;100277.16;;;29.23;58.89
82353;BME280;71954;47.430;18.920;2023-08-20T08:39:05;100279.63;;;29.24;61.45
82353;BME280;71954;47.430;18.920;2023-08-20T08:41:32;100278.78;;;29.24;56.70
82353;BME280;71954;47.430;18.920;2023-08-20T08:44:02;100274.75;;;29.26;57.95
82353;BME280;71954;47.430;18.920;2023-08-20T08:46:29;100274.75;;;29.26;62.74
82353;BME280;71954;47.430;18.920;2023-08-20T08:48:57;100264.75;;;29.20;61.56
82353;BME280;71954;47.430;18.920;2023-08-20T08:51:25;100271.28;;;29.19;63.62
82353;BME280;71954;47.430;18.920;2023-08-20T08:53:53;100272.50;;;29.11;64.05
82353;BME280;71954;47.430;18.920;2023-08-20T08:56:20;100275.69;;;28.97;59.52
82353;BME280;71954;47.430;18.920;2023-08-20T08:58:47;100273.09;;;29.02;59.91
82353;BME280;71954;47.430;18.920;2023-08-20T09:01:14;100279.28;;;29.09;58.42
82353;BME280;71954;47.430;18.920;2023-08-20T09:03:40;100278.56;;;29.13;59.08
82353;BME280;71954;47.430;18.920;2023-08-20T09:06:09;100280.34;;;29.20;62.93
82353;BME280;71954;47.430;18.920;2023-08-20T09:08:36;100271.53;;;29.18;57.80
82353;BME280;71954;47.430;18.920;2023-08-20T09:11:03;100276.88;;;29.24;57.90
82353;BME280;71954;47.430;18.920;2023-08-20T09:13:34;100279.28;;;29.32;59.19
82353;BME280;71954;47.430;18.920;2023-08-20T09:16:09;100268.34;;;29.32;58.17
82353;BME280;71954;47.430;18.920;2023-08-20T09:18:40;100277.16;;;29.34;59.39
82353;BME280;71954;47.430;18.920;2023-08-20T09:21:08;100278.56;;;29.37;63.26
82353;BME280;71954;47.430;18.920;2023-08-20T09:23:36;100278.94;;;29.40;63.52
82353;BME280;71954;47.430;18.920;2023-08-20T09:26:04;100272.88;;;29.38;59.57
82353;BME280;71954;47.430;18.920;2023-08-20T09:28:41;100275.25;;;29.46;62.44
82353;BME280;71954;47.430;18.920;2023-08-20T09:31:08;100282.50;;;29.52;62.76
82353;BME280;71954;47.430;18.920;2023-08-20T09:33:48;100275.84;;;29.48;61.41
82353;BME280;71954;47.430;18.920;2023-08-20T09:36:15;100274.88;;;29.43;57.04
82353;BME280;71954;47.430;18.920;2023-08-20T09:38:42;100285.47;;;29.51;61.85
82353;BME280;71954;47.430;18.920;2023-08-20T09:41:09;100274.75;;;29.49;58.67
82353;BME280;71954;47.430;18.920;2023-08-20T09:43:38;100279.16;;;29.50;63.45
82353;BME280;71954;47.430;18.920;2023-08-20T09:46:05;100286.09;;;29.53;62.00
82353;BME280;71954;47.430;18.920;2023-08-20T09:48:38;100276.78;;;29.54;59.84
82353;BME280;71954;47.430;18.920;2023-08-20T09:51:10;100277.16;;;29.58;60.03
82353;BME280;71954;47.430;18.920;2023-08-20T09:53:45;100280.94;;;29.57;59.27
82353;BME280;71954;47.430;18.920;2023-08-20T09:56:20;100274.31;;;29.52;55.11
82353;BME280;71954;47.430;18.920;2023-08-20T09:58:49;100278.44;;;29.55;58.25
82353;BME280;71954;47.430;18.920;2023-08-20T10:01:17;100278.09;;;29.51;61.70
82353;BME280;71954;47.430;18.920;2023-08-20T10:03:44;100269.78;;;29.46;59.33
82353;BME280;71954;47.430;18.920;2023-08-20T10:06:11;100264.31;;;29.46;59.39
82353;BME280;71954;47.430;18.920;2023-08-20T10:08:38;100274.31;;;29.52;55.39
82353;BME280;71954;47.430;18.920;2023-08-20T10:11:05;100268.44;;;29.61;62.36
82353;BME280;71954;47.430;18.920;2023-08-20T10:13:32;100266.53;;;29.61;58.76
82353;BME280;71954;47.430;18.920;2023-08-20T10:15:58;100267.63;;;29.72;61.66
82353;BME280;71954;47.430;18.920;2023-08-20T10:18:26;100259.50;;;29.77;57.65
82353;BME280;71954;47.430;18.920;2023-08-20T10:20:53;100261.50;;;29.81;53.48
82353;BME280;71954;47.430;18.920;2023-08-20T10:23:22;100259.84;;;29.92;54.73
82353;BME280;71954;47.430;18.920;2023-08-20T10:25:52;100260.53;;;29.99;59.64
82353;BME280;71954;47.430;18.920;2023-08-20T10:28:26;100258.25;;;29.96;64.41
82353;BME280;71954;47.430;18.920;2023-08-20T10:33:49;100249.81;;;29.98;56.34
82353;BME280;71954;47.430;18.920;2023-08-20T10:36:21;100255.28;;;29.98;62.12
82353;BME280;71954;47.430;18.920;2023-08-20T10:38:57;100259.00;;;29.91;60.55
82353;BME280;71954;47.430;18.920;2023-08-20T10:41:30;100252.47;;;29.92;61.46
82353;BME280;71954;47.430;18.920;2023-08-20T10:44:00;100247.44;;;29.89;62.81
82353;BME280;71954;47.430;18.920;2023-08-20T10:46:28;100243.28;;;29.87;57.46
82353;BME280;71954;47.430;18.920;2023-08-20T10:48:59;100246.63;;;29.89;60.78
82353;BME280;71954;47.430;18.920;2023-08-20T10:51:29;100241.28;;;29.82;61.16
82353;BME280;71954;47.430;18.920;2023-08-20T10:56:43;100244.75;;;29.78;58.39
82353;BME280;71954;47.430;18.920;2023-08-20T10:59:21;100245.09;;;29.81;53.42
82353;BME280;71954;47.430;18.920;2023-08-20T11:01:52;100245.91;;;29.82;57.27
82353;BME280;71954;47.430;18.920;2023-08-20T11:04:20;100242.13;;;29.83;58.33
82353;BME280;71954;47.430;18.920;2023-08-20T11:06:53;100234.88;;;29.77;54.87
82353;BME280;71954;47.430;18.920;2023-08-20T11:09:24;100238.28;;;29.84;61.31
82353;BME280;71954;47.430;18.920;2023-08-20T11:11:51;100230.06;;;29.84;62.75
82353;BME280;71954;47.430;18.920;2023-08-20T11:14:19;100238.88;;;29.86;62.84
82353;BME280;71954;47.430;18.920;2023-08-20T11:16:47;100243.75;;;29.84;61.83
82353;BME280;71954;47.430;18.920;2023-08-20T11:19:19;100237.94;;;29.80;62.19
82353;BME280;71954;47.430;18.920;2023-08-20T11:21:46;100235.44;;;29.79;52.67
82353;BME280;71954;47.430;18.920;2023-08-20T11:24:13;100235.66;;;29.89;54.30
82353;BME280;71954;47.430;18.920;2023-08-20T11:26:41;100232.66;;;29.90;59.35
82353;BME280;71954;47.430;18.920;2023-08-20T11:29:11;100231.38;;;29.93;61.02
82353;BME280;71954;47.430;18.920;2023-08-20T11:31:39;100224.94;;;29.87;57.98
82353;BME280;71954;47.430;18.920;2023-08-20T11:34:06;100229.97;;;29.79;56.95
82353;BME280;71954;47.430;18.920;2023-08-20T11:36:34;100228.44;;;29.83;53.87
82353;BME280;71954;47.430;18.920;2023-08-20T11:39:02;100227.47;;;29.89;58.32
82353;BME280;71954;47.430;18.920;2023-08-20T11:41:28;100224.13;;;29.87;55.79
82353;BME280;71954;47.430;18.920;2023-08-20T11:43:55;100219.25;;;29.89;54.86
82353;BME280;71954;47.430;18.920;2023-08-20T11:46:23;100222.56;;;29.91;58.03
82353;BME280;71954;47.430;18.920;2023-08-20T11:49:06;100222.56;;;29.91;59.35
82353;BME280;71954;47.430;18.920;2023-08-20T11:51:43;100220.31;;;29.88;56.76
82353;BME280;71954;47.430;18.920;2023-08-20T11:54:14;100218.78;;;29.92;56.79
82353;BME280;71954;47.430;18.920;2023-08-20T11:56:48;100214.47;;;29.96;59.61
82353;BME280;71954;47.430;18.920;2023-08-20T11:59:17;100220.53;;;29.98;54.28
82353;BME280;71954;47.430;18.920;2023-08-20T12:01:51;100206.69;;;30.05;54.95
82353;BME280;71954;47.430;18.920;2023-08-20T12:04:18;100215.50;;;30.07;59.50
82353;BME280;71954;47.430;18.920;2023-08-20T12:07:01;100217.31;;;30.01;61.07
82353;BME280;71954;47.430;18.920;2023-08-20T12:09:29;100210.66;;;29.97;59.94
82353;BME280;71954;47.430;18.920;2023-08-20T12:11:55;100215.91;;;29.87;59.37
82353;BME280;71954;47.430;18.920;2023-08-20T12:14:22;100202.13;;;29.82;54.94
82353;BME280;71954;47.430;18.920;2023-08-20T12:16:49;100209.63;;;29.75;52.48
82353;BME280;71954;47.430;18.920;2023-08-20T12:19:19;100208.56;;;29.76;55.18
82353;BME280;71954;47.430;18.920;2023-08-20T12:21:46;100200.34;;;29.76;56.83
82353;BME280;71954;47.430;18.920;2023-08-20T12:24:12;100207.59;;;29.82;59.63
82353;BME280;71954;47.430;18.920;2023-08-20T12:26:39;100199.84;;;29.79;56.18
82353;BME280;71954;47.430;18.920;2023-08-20T12:29:06;100203.06;;;29.87;54.65
82353;BME280;71954;47.430;18.920;2023-08-20T12:31:34;100198.63;;;29.98;50.69
82353;BME280;71954;47.430;18.920;2023-08-20T12:34:01;100207.91;;;29.97;57.11
82353;BME280;71954;47.430;18.920;2023-08-20T12:36:29;100208.66;;;29.92;55.27
82353;BME280;71954;47.430;18.920;2023-08-20T12:38:56;100202.69;;;29.84;53.33
82353;BME280;71954;47.430;18.920;2023-08-20T12:41:22;100213.41;;;29.85;57.02
82353;BME280;71954;47.430;18.920;2023-08-20T12:43:49;100192.56;;;29.56;53.22
82353;BME280;71954;47.430;18.920;2023-08-20T12:46:17;100203.28;;;29.58;55.03
82353;BME280;71954;47.430;18.920;2023-08-20T12:48:44;100190.19;;;29.60;57.37
82353;BME280;71954;47.430;18.920;2023-08-20T12:51:10;100193.16;;;29.58;57.49
82353;BME280;71954;47.430;18.920;2023-08-20T12:53:40;100192.56;;;29.56;58.05